Terminal Aerodrome Forecast
Issued by NWS

Home | Current Version | Previous Version | Text Only | Print | Product List | Glossary On
Versions: 1 2 3 4 5 6 7 8 9 10 11 12 13
000
FTUS44 KEPZ 231141
TAFLRU
TAF
KLRU 231141Z 2312/2412 12006KT P6SM FEW060 BKN250
     FM232100 13007KT P6SM VCTS SCT050CB BKN200
     FM240000 15007KT P6SM -TSRA SCT020 BKN050CB=

USA.gov is the U.S. government's official web portal to all federal, state and local government web resources and services.